Relevés horaires Bouveret (Suisse)


Relevés horaires à Bouveret - Vendredi 04 Sept. 2015
Heure UTC1 Température [°C] Vent [km/h] Hum. [%] Pres.4 [hPa] Visi. [Km] Nébu. [octa] Préc.5 [mm] Cond.
2m. Res. Ros. Dir.2 Vit. Moy. Raf.3
23:00 17.9 17.4 8.5 NNO 18.5 22.2 29.6 54 1015.7(0.4/3h) -- -- -- --
22:00 18.1 17.8 8.3 ONO 16.7 16.7 24.1 53 1015.6(0.8/3h) -- -- -- --
21:00 18.3 17.8 7.9 O 20.4 24.1 31.5 51 1015.2(1.1/3h) -- -- -- --
20:00 18.6 18.3 8.6 ONO 18.5 24.1 31.5 52 1015.2(1.4/3h) -- -- -- --
19:00 19.3 19.1 9.0 ONO 20.4 22.2 29.6 51 1014.5(1.1/3h) -- -- -- --
18:00 19.8 19.7 9.5 NO 20.4 20.4 27.8 51 1013.8(0.4/3h) -- -- -- --
17:00 20.1 20.1 10.2 ONO 18.5 20.4 25.9 53 1013.5(0.0/3h) -- -- -- --
16:00 20.1 20.1 9.7 O 13.0 13.0 16.7 51 1013.3(-1.1/3h) -- -- -- --
15:00 20.2 20.2 8.6 O 13.0 16.7 20.4 47 1013.4(-1.4/3h) -- -- -- --
14:00 20.2 20.2 8.8 O 16.7 16.7 20.4 48 1013.5(-1.9/3h) -- -- -- --
13:00 19.8 19.8 7.6 O 16.7 16.7 20.4 45 1014.5(-1.5/3h) -- -- -- --
12:00 19.2 19.2 8.9 ONO 14.8 14.8 18.5 51 1015(-1.5/3h) -- -- -- --
11:00 18.7 18.7 9.2 ONO 11.1 11.1 16.7 54 1015.7(-0.7/3h) -- -- -- --
10:00 17.8 17.8 10.5 ONO 11.1 11.1 13.0 62 1016.4(-0.2/3h) -- -- -- --
09:00 16.9 16.9 11.6 NO 7.4 7.4 11.1 71 1016.9(0.5/3h) -- -- -- --
08:00 16.4 16.4 10.2 NE 3.7 3.7 5.6 67 1016.8(0.5/3h) -- -- -- --
07:00 14.5 14.5 10.5 SSE 5.6 7.4 11.1 77 1017.1(0.6/3h) -- -- -- --
06:00 13.1 13.1 10.7 SSE 5.6 7.4 9.3 85 1017(0.1/3h) -- -- -- --
05:00 13.0 12.6 11.1 SSE 7.4 7.4 9.3 88 1016.8(-0.3/3h) -- -- -- --
04:00 13.6 13.6 11.6 SSE 5.6 7.4 9.3 88 1016.6(-0.4/3h) -- -- -- --
03:00 14.1 14.1 11.7 SSE 5.6 7.4 9.3 85 1016.7(-0.6/3h) -- -- -- --
02:00 14.5 14.5 11.7 SE 5.6 7.4 9.3 83 1016.9(-0.4/3h) -- -- -- --
01:00 15.0 15.0 12.2 SSE 5.6 5.6 7.4 83 1016.8(0.0/3h) -- -- -- --
00:00 15.2 15.2 12.2 SE 1.9 42.6 55.6 82 1017.2(0.5/3h) -- -- -- --

1 Coordinated Universal Time. Actuellement il est 22:00 locale et 20:00 UTC.

2 Le vent souffle depuis la direction indiquée vers la direction oposée.

3 Les rafales max. sont disponible 40 min après l'heure du relevé.

4 Pour les stations d'altitude (plus de 600m) le géopotentiel du niveau le plus proche de la pression obligatoire est indiqué.

5 Les stations disposant d'un diffuseur peuvent indiquer "trace". Cela signifie que des précipitations ont touchés le sol mais que la quantité est inférieure à 0.1 mm.

Copyright

Les données affichées sur cette page sont la propriété exclusive de Météo Suisse.

Récapitulatif de la journée
Température [°C] Vent [km/h] Ensoleillement4 [h] Precipitations totale5 [mm] Pression [Hpa]
Min1 Max.2 Moy.3 Max. Min Max.
12.9 20.3 14.7 55.6 0 h 0 min 0 1013.3 1017.2

1 Température minimale relevée entre 18:00 UTC la veille et 18:00 UTC le jour donné.

2 Température maximale relevée entre 06:00 UTC le jour donné et 06:00 UTC le lendemain.

3 Vent moyen de la journée basé sur les relevés horaires.

4 Ensoleillement en heures relevé entre 06:00 UTC la veille et 06:00 UTC le jour donné.

5 Précipitations totales tombées entre 06:00 UTC la jour donné et 06:00 UTC le lendemain.

Graphiques horaires